createdAt,value
2022-11-19T00:03:52.129Z,10.57
2022-11-19T00:08:55.046Z,9.55
2022-11-19T00:13:56.881Z,10.57
2022-11-19T00:18:58.756Z,10.07
2022-11-19T00:24:00.573Z,10.73
2022-11-19T00:29:02.399Z,10.35
2022-11-19T00:34:04.392Z,9.20
2022-11-19T00:39:06.337Z,9.30
2022-11-19T00:44:08.281Z,8.65
2022-11-19T00:49:10.068Z,9.18
2022-11-19T00:54:11.897Z,8.48
2022-11-19T00:59:14.122Z,8.10
2022-11-19T01:04:15.963Z,9.02
2022-11-19T01:09:18.365Z,8.48
2022-11-19T01:14:20.229Z,7.85
2022-11-19T01:19:22.523Z,7.53
2022-11-19T01:24:24.505Z,7.68
2022-11-19T01:29:26.493Z,8.13
2022-11-19T01:34:28.405Z,8.32
2022-11-19T01:39:30.318Z,7.72
2022-11-19T01:45:00.165Z,8.63
2022-11-19T01:50:02.604Z,8.57
2022-11-19T01:55:04.907Z,7.78
2022-11-19T02:00:08.237Z,8.73
2022-11-19T02:05:10.125Z,9.18
2022-11-19T02:10:12.469Z,8.88
2022-11-19T02:15:14.280Z,9.88
2022-11-19T02:20:37.816Z,9.70
2022-11-19T02:25:42.332Z,9.13
2022-11-19T02:30:49.718Z,9.10
2022-11-19T02:36:00.100Z,9.85
2022-11-19T02:41:28.607Z,8.93
2022-11-19T02:46:30.568Z,9.38
2022-11-19T02:51:32.400Z,9.02
2022-11-19T02:56:53.644Z,9.88
2022-11-19T03:02:14.723Z,10.43
2022-11-19T03:07:19.041Z,9.00
2022-11-19T03:12:26.793Z,10.93
2022-11-19T03:17:44.909Z,10.77
2022-11-19T03:22:55.461Z,10.38
2022-11-19T03:28:03.581Z,11.27
2022-11-19T03:33:24.528Z,9.50
2022-11-19T03:38:34.065Z,10.55
2022-11-19T03:43:39.780Z,10.52
2022-11-19T03:48:45.214Z,8.35
2022-11-19T03:53:48.375Z,9.30
2022-11-19T03:58:50.287Z,9.13
2022-11-19T04:04:11.018Z,9.10
2022-11-19T04:09:12.866Z,8.93
2022-11-19T04:14:14.783Z,7.75
2022-11-19T04:19:18.285Z,9.90
2022-11-19T04:24:20.399Z,10.05
2022-11-19T04:29:22.399Z,11.18
2022-11-19T04:34:24.261Z,10.13
2022-11-19T04:39:26.871Z,9.82
2022-11-19T04:44:29.097Z,10.45
2022-11-19T04:49:30.918Z,11.13
2022-11-19T04:54:32.726Z,10.02
2022-11-19T04:59:34.555Z,9.10
2022-11-19T05:04:36.414Z,9.45
2022-11-19T05:09:38.228Z,10.10
2022-11-19T05:14:40.186Z,11.35
2022-11-19T05:19:42.040Z,10.43
2022-11-19T05:24:43.852Z,11.15
2022-11-19T05:29:45.701Z,9.95
2022-11-19T05:34:48.571Z,10.73
2022-11-19T05:39:50.464Z,10.80
2022-11-19T05:44:52.311Z,9.52
2022-11-19T05:49:54.137Z,9.98
2022-11-19T05:54:55.956Z,10.60
2022-11-19T05:59:57.789Z,11.13
2022-11-19T06:04:59.609Z,10.70
2022-11-19T06:10:01.483Z,11.35
2022-11-19T06:15:03.642Z,9.90
2022-11-19T06:20:08.847Z,10.75
2022-11-19T06:25:10.690Z,9.80
2022-11-19T06:30:13.501Z,10.20
2022-11-19T06:35:15.411Z,10.68
2022-11-19T06:40:17.345Z,10.35
2022-11-19T06:45:19.178Z,11.02
2022-11-19T06:50:20.987Z,11.38
2022-11-19T06:55:23.281Z,11.73
2022-11-19T07:00:25.097Z,12.20
2022-11-19T07:05:26.943Z,16.13
2022-11-19T07:10:28.799Z,13.43
2022-11-19T07:15:30.731Z,13.43
2022-11-19T07:20:32.670Z,13.82
2022-11-19T07:25:34.478Z,13.68
2022-11-19T07:30:36.465Z,13.82
2022-11-19T07:35:38.295Z,12.98
2022-11-19T07:40:40.166Z,14.88
2022-11-19T07:45:41.992Z,14.50
2022-11-19T07:50:55.144Z,13.48
2022-11-19T07:56:01.363Z,15.00
2022-11-19T08:01:11.035Z,14.60
2022-11-19T08:06:15.522Z,13.00
2022-11-19T08:11:18.437Z,13.00
2022-11-19T08:16:39.096Z,14.00
2022-11-19T08:21:43.195Z,14.57
2022-11-19T08:26:45.634Z,13.55
2022-11-19T08:31:48.342Z,17.65
2022-11-19T08:36:50.247Z,13.40
2022-11-19T08:42:10.528Z,13.70
2022-11-19T08:47:12.442Z,12.75
2022-11-19T08:52:14.729Z,12.63
2022-11-19T08:57:16.604Z,12.27
2022-11-19T09:02:18.431Z,11.57
2022-11-19T09:07:20.349Z,11.30
2022-11-19T09:12:22.312Z,14.40
2022-11-19T09:17:24.437Z,14.27
2022-11-19T09:22:26.450Z,13.32
2022-11-19T09:27:28.286Z,14.05
2022-11-19T09:32:30.199Z,12.85
2022-11-19T09:37:34.221Z,12.68
2022-11-19T09:42:49.931Z,14.13
2022-11-19T09:48:35.766Z,13.77
2022-11-19T09:54:01.652Z,12.57
2022-11-19T09:59:25.559Z,13.43
2022-11-19T10:04:31.712Z,11.40
2022-11-19T10:09:33.481Z,10.77
2022-11-19T10:14:47.326Z,10.70
2022-11-19T10:20:04.290Z,9.90
2022-11-19T10:25:16.546Z,8.55
2022-11-19T10:30:21.596Z,11.55
2022-11-19T10:35:30.074Z,10.15
2022-11-19T10:40:57.685Z,9.35
2022-11-19T10:46:02.884Z,7.40
2022-11-19T10:51:19.389Z,7.95
2022-11-19T10:56:42.300Z,6.93
2022-11-19T11:01:47.457Z,6.00
2022-11-19T11:06:51.240Z,6.90
2022-11-19T11:12:11.800Z,6.00
2022-11-19T11:17:28.848Z,5.63
2022-11-19T11:22:31.198Z,5.78
2022-11-19T11:27:35.664Z,5.18
2022-11-19T11:32:38.737Z,5.40
2022-11-19T11:37:40.641Z,6.40
2022-11-19T11:42:42.547Z,5.75
2022-11-19T11:47:44.406Z,4.40
2022-11-19T11:52:52.070Z,4.82
2022-11-19T11:58:06.266Z,5.35
2022-11-19T12:03:14.010Z,3.50
2022-11-19T12:08:37.022Z,4.25
2022-11-19T12:13:50.717Z,4.50
2022-11-19T12:18:55.628Z,4.85
2022-11-19T12:24:12.658Z,4.88
2022-11-19T12:29:17.762Z,4.40
2022-11-19T12:34:50.024Z,5.03
2022-11-19T12:40:19.274Z,4.72
2022-11-19T12:45:42.186Z,4.85
2022-11-19T12:51:02.112Z,5.32
2022-11-19T12:56:22.877Z,4.87
2022-11-19T13:06:49.386Z,4.88
2022-11-19T13:12:02.429Z,5.40
2022-11-19T13:17:11.357Z,5.18
2022-11-19T13:22:19.150Z,4.50
2022-11-19T13:27:23.850Z,4.68
2022-11-19T13:32:48.710Z,4.30
2022-11-19T13:38:02.791Z,5.07
2022-11-19T13:43:32.583Z,4.40
2022-11-19T13:48:43.260Z,4.10
2022-11-19T13:53:46.438Z,6.45
2022-11-19T13:58:52.344Z,4.82
2022-11-19T14:04:03.224Z,4.32
2022-11-19T14:09:11.004Z,4.47
2022-11-19T14:14:40.630Z,4.32
2022-11-19T14:20:13.870Z,3.97
2022-11-19T14:26:05.020Z,4.63
2022-11-19T14:31:07.200Z,4.93
2022-11-19T14:36:31.807Z,5.93
2022-11-19T14:41:34.976Z,4.55
2022-11-19T14:46:42.011Z,4.72
2022-11-19T14:51:43.936Z,5.55
2022-11-19T14:56:48.629Z,5.43
2022-11-19T15:02:12.070Z,5.38
2022-11-19T15:07:39.407Z,5.15
2022-11-19T15:12:41.265Z,7.75
2022-11-19T15:17:43.928Z,7.85
2022-11-19T15:23:25.077Z,8.18
2022-11-19T15:28:45.204Z,8.45
2022-11-19T15:34:19.152Z,9.25
2022-11-19T15:39:32.053Z,10.45
2022-11-19T15:44:37.318Z,13.60
2022-11-19T15:49:42.950Z,12.75
2022-11-19T15:54:44.826Z,10.43
2022-11-19T15:59:51.954Z,16.38
2022-11-19T16:04:53.885Z,15.70
2022-11-19T16:09:56.348Z,15.88
2022-11-19T16:15:16.936Z,16.05
2022-11-19T16:20:21.140Z,20.50
2022-11-19T16:25:27.706Z,13.95
2022-11-19T16:30:38.284Z,15.10
2022-11-19T16:35:40.153Z,22.33
2022-11-19T16:41:01.770Z,26.77
2022-11-19T16:46:05.772Z,49.47
2022-11-19T16:51:38.397Z,18.20
2022-11-19T16:56:44.043Z,10.30
2022-11-19T17:01:56.251Z,14.48
2022-11-19T17:06:59.485Z,13.25
2022-11-19T17:12:19.878Z,12.20
2022-11-19T17:17:39.487Z,11.65
2022-11-19T17:22:42.251Z,14.23
2022-11-19T17:27:44.768Z,14.45
2022-11-19T17:32:53.789Z,14.07
2022-11-19T17:37:56.855Z,12.33
2022-11-19T17:43:17.176Z,14.73
2022-11-19T17:48:25.335Z,17.70
2022-11-19T17:53:27.340Z,18.13
2022-11-19T17:58:29.363Z,23.15
2022-11-19T18:03:31.475Z,30.27
2022-11-19T18:08:35.151Z,23.70
2022-11-19T18:13:37.361Z,17.10
2022-11-19T18:18:39.463Z,19.48
2022-11-19T18:23:42.426Z,14.65
2022-11-19T18:28:48.843Z,19.65
2022-11-19T18:33:52.326Z,15.90
2022-11-19T18:38:56.000Z,14.95
2022-11-19T18:44:18.242Z,10.05
2022-11-19T18:49:20.221Z,8.52
2022-11-19T18:54:22.368Z,13.50
2022-11-19T18:59:24.611Z,10.15
2022-11-19T19:04:26.831Z,8.32
2022-11-19T19:09:28.961Z,8.68
2022-11-19T19:14:30.905Z,8.52
2022-11-19T19:19:32.734Z,9.10
2022-11-19T19:24:34.881Z,12.95
2022-11-19T19:29:37.413Z,13.68
2022-11-19T19:34:39.291Z,11.55
2022-11-19T19:39:41.328Z,16.80
2022-11-19T19:44:43.502Z,18.58
2022-11-19T19:49:45.325Z,13.75
2022-11-19T19:54:47.146Z,12.10
2022-11-19T19:59:49.018Z,10.18
2022-11-19T20:04:50.897Z,10.10
2022-11-19T20:09:52.717Z,9.05
2022-11-19T20:14:54.580Z,10.60
2022-11-19T20:19:56.405Z,9.90
2022-11-19T20:24:58.763Z,9.45
2022-11-19T20:30:00.834Z,9.35
2022-11-19T20:35:03.143Z,9.40
2022-11-19T20:40:05.437Z,10.88
2022-11-19T20:45:08.392Z,10.18
2022-11-19T20:50:10.623Z,10.57
2022-11-19T20:55:12.444Z,12.00
2022-11-19T21:00:15.642Z,11.40
2022-11-19T21:05:17.571Z,11.43
2022-11-19T21:10:19.462Z,11.38
2022-11-19T21:15:21.296Z,11.98
2022-11-19T21:20:23.299Z,11.10
2022-11-19T21:25:25.306Z,10.30
2022-11-19T21:30:27.145Z,9.80
2022-11-19T21:35:29.061Z,10.57
2022-11-19T21:40:30.904Z,11.32
2022-11-19T21:45:33.001Z,9.38
2022-11-19T21:50:37.806Z,9.90
2022-11-19T21:55:43.111Z,9.70
2022-11-19T22:00:47.021Z,10.40
2022-11-19T22:06:08.803Z,9.85
2022-11-19T22:11:30.064Z,9.25
2022-11-19T22:16:35.747Z,11.23
2022-11-19T22:21:38.053Z,12.00
2022-11-19T22:26:39.858Z,11.88
2022-11-19T22:31:41.713Z,11.82
2022-11-19T22:36:43.565Z,11.60
2022-11-19T22:41:45.373Z,12.45
2022-11-19T22:46:47.317Z,10.98
2022-11-19T22:51:49.432Z,9.70
2022-11-19T22:56:51.255Z,12.13
2022-11-19T23:01:53.121Z,12.85
2022-11-19T23:06:54.995Z,11.05
2022-11-19T23:12:15.592Z,9.43
2022-11-19T23:17:17.418Z,8.20
2022-11-19T23:22:19.310Z,7.13
2022-11-19T23:27:22.391Z,7.20
2022-11-19T23:32:24.297Z,7.25
2022-11-19T23:37:26.204Z,6.97
2022-11-19T23:42:28.008Z,6.57
2022-11-19T23:47:29.958Z,7.85
2022-11-19T23:52:31.856Z,6.60
2022-11-19T23:57:33.662Z,7.05
